createdAt,value
2023-01-19T00:02:42.118Z,93.76
2023-01-19T00:05:44.743Z,93.98
2023-01-19T00:08:48.992Z,93.66
2023-01-19T00:11:51.407Z,93.78
2023-01-19T00:14:53.540Z,93.81
2023-01-19T00:17:55.791Z,93.72
2023-01-19T00:21:00.524Z,93.80
2023-01-19T00:24:02.900Z,93.25
2023-01-19T00:27:04.919Z,93.35
2023-01-19T00:30:08.025Z,93.34
2023-01-19T00:33:11.580Z,93.79
2023-01-19T00:36:13.845Z,93.83
2023-01-19T00:39:16.298Z,94.03
2023-01-19T00:42:36.598Z,94.02
2023-01-19T00:45:38.677Z,93.96
2023-01-19T00:48:41.365Z,93.77
2023-01-19T00:51:44.589Z,93.79
2023-01-19T00:54:46.958Z,94.11
2023-01-19T00:57:49.441Z,93.79
2023-01-19T01:00:53.937Z,94.00
2023-01-19T01:03:56.260Z,94.40
2023-01-19T01:07:01.309Z,94.37
2023-01-19T01:10:03.911Z,94.16
2023-01-19T01:13:20.488Z,94.16
2023-01-19T01:16:23.381Z,93.91
2023-01-19T01:19:25.914Z,93.55
2023-01-19T01:22:28.295Z,93.02
2023-01-19T01:25:31.759Z,92.81
2023-01-19T01:28:33.908Z,93.41
2023-01-19T01:31:38.861Z,93.98
2023-01-19T01:34:41.599Z,93.54
2023-01-19T01:37:44.060Z,93.54
2023-01-19T01:40:46.333Z,93.46
2023-01-19T01:43:57.602Z,93.19
2023-01-19T01:47:00.160Z,93.39
2023-01-19T01:50:22.463Z,93.20
2023-01-19T01:53:24.728Z,93.31
2023-01-19T01:56:34.572Z,93.66
2023-01-19T01:59:42.595Z,92.98
2023-01-19T02:02:51.455Z,92.96
2023-01-19T02:05:59.532Z,93.04
2023-01-19T02:09:29.202Z,92.90
2023-01-19T02:12:49.969Z,93.35
2023-01-19T02:16:01.154Z,92.96
2023-01-19T02:19:05.869Z,93.41
2023-01-19T02:22:18.059Z,93.53
2023-01-19T02:25:21.951Z,93.28
2023-01-19T02:28:26.149Z,93.58
2023-01-19T02:31:32.191Z,92.75
2023-01-19T02:34:35.443Z,92.87
2023-01-19T02:37:41.525Z,93.07
2023-01-19T02:40:46.091Z,93.10
2023-01-19T02:43:50.035Z,93.27
2023-01-19T02:46:54.710Z,92.88
2023-01-19T02:50:00.928Z,92.38
2023-01-19T02:53:47.658Z,92.03
2023-01-19T02:56:49.708Z,92.44
2023-01-19T03:00:18.145Z,92.51
2023-01-19T03:03:32.889Z,92.18
2023-01-19T03:07:10.736Z,91.45
2023-01-19T03:10:20.715Z,91.43
2023-01-19T03:13:54.042Z,91.44
2023-01-19T03:17:01.323Z,91.20
2023-01-19T03:20:05.940Z,91.08
2023-01-19T03:23:11.373Z,91.13
2023-01-19T03:26:19.248Z,91.56
2023-01-19T03:29:24.978Z,91.10
2023-01-19T03:32:36.454Z,91.45
2023-01-19T03:35:45.056Z,90.97
2023-01-19T03:38:51.091Z,91.38
2023-01-19T03:41:58.871Z,91.97
2023-01-19T03:45:02.058Z,91.41
2023-01-19T03:48:05.749Z,91.91
2023-01-19T03:51:09.737Z,90.90
2023-01-19T03:54:12.299Z,90.73
2023-01-19T03:57:14.550Z,91.83
2023-01-19T04:00:18.243Z,91.72
2023-01-19T04:03:20.628Z,90.74
2023-01-19T04:06:27.022Z,90.71
2023-01-19T04:09:29.703Z,91.22
2023-01-19T04:12:32.659Z,91.08
2023-01-19T04:15:34.771Z,91.00
2023-01-19T04:18:37.616Z,90.71
2023-01-19T04:21:40.284Z,91.01
2023-01-19T04:24:45.271Z,91.00
2023-01-19T04:27:47.426Z,90.69
2023-01-19T04:30:55.062Z,90.69
2023-01-19T04:33:57.259Z,89.52
2023-01-19T04:37:02.315Z,89.83
2023-01-19T04:40:04.977Z,89.84
2023-01-19T04:43:09.935Z,88.75
2023-01-19T04:46:11.970Z,89.17
2023-01-19T04:49:16.344Z,89.05
2023-01-19T04:52:18.311Z,88.53
2023-01-19T04:55:20.253Z,88.16
2023-01-19T04:58:22.483Z,88.72
2023-01-19T05:01:24.972Z,88.14
2023-01-19T05:04:27.389Z,88.95
2023-01-19T05:07:29.435Z,88.45
2023-01-19T05:10:31.466Z,87.71
2023-01-19T05:13:36.530Z,87.85
2023-01-19T05:16:38.517Z,87.81
2023-01-19T05:19:41.710Z,87.81
2023-01-19T05:22:48.977Z,88.24
2023-01-19T05:25:50.955Z,87.92
2023-01-19T05:28:53.161Z,88.89
2023-01-19T05:31:55.186Z,88.05
2023-01-19T05:34:57.292Z,87.83
2023-01-19T05:37:59.165Z,87.49
2023-01-19T05:41:03.038Z,87.65
2023-01-19T05:44:06.585Z,87.59
2023-01-19T05:47:11.021Z,87.98
2023-01-19T05:50:13.036Z,87.38
2023-01-19T05:53:16.747Z,86.53
2023-01-19T05:56:18.703Z,87.06
2023-01-19T05:59:25.878Z,86.63
2023-01-19T06:02:30.186Z,86.45
2023-01-19T06:05:33.053Z,86.36
2023-01-19T06:08:50.299Z,86.49
2023-01-19T06:12:01.634Z,85.23
2023-01-19T06:15:04.065Z,84.70
2023-01-19T06:18:06.317Z,84.84
2023-01-19T06:21:10.277Z,84.92
2023-01-19T06:24:13.833Z,85.29
2023-01-19T06:27:17.659Z,85.66
2023-01-19T06:30:20.354Z,86.41
2023-01-19T06:33:24.307Z,85.77
2023-01-19T06:36:31.019Z,86.01
2023-01-19T06:39:33.273Z,86.27
2023-01-19T06:42:35.678Z,86.54
2023-01-19T06:45:44.089Z,85.53
2023-01-19T06:48:48.577Z,84.98
2023-01-19T06:52:06.849Z,85.27
2023-01-19T06:55:16.576Z,85.19
2023-01-19T06:58:20.368Z,85.87
2023-01-19T07:01:24.244Z,85.54
2023-01-19T07:04:30.818Z,86.05
2023-01-19T07:11:33.447Z,85.12
2023-01-19T07:19:47.848Z,86.18
2023-01-19T07:23:03.687Z,86.36
2023-01-19T07:26:15.683Z,86.02
2023-01-19T07:29:58.059Z,84.85
2023-01-19T07:33:04.100Z,85.58
2023-01-19T07:36:09.361Z,84.60
2023-01-19T07:39:13.524Z,85.06
2023-01-19T07:46:57.822Z,85.13
2023-01-19T07:50:58.607Z,84.88
2023-01-19T07:54:23.505Z,85.21
2023-01-19T07:57:26.152Z,84.26
2023-01-19T08:16:47.437Z,84.13
2023-01-19T08:20:08.388Z,84.04
2023-01-19T08:23:36.366Z,83.82
2023-01-19T08:31:57.692Z,83.85
2023-01-19T08:45:16.579Z,82.79
2023-01-19T08:48:27.861Z,83.43
2023-01-19T09:01:25.197Z,82.94
2023-01-19T09:05:01.375Z,83.68
2023-01-19T09:18:35.005Z,85.69
2023-01-19T09:26:20.477Z,85.72
2023-01-19T09:29:41.086Z,85.23
2023-01-19T09:33:12.479Z,85.47
2023-01-19T09:36:28.647Z,85.50
2023-01-19T09:39:48.479Z,86.96
2023-01-19T09:43:30.766Z,86.57
2023-01-19T09:47:02.411Z,86.61
2023-01-19T09:54:19.486Z,86.65
2023-01-19T09:57:40.482Z,87.24
2023-01-19T10:00:59.310Z,87.16
2023-01-19T10:04:54.176Z,87.70
2023-01-19T10:17:40.468Z,88.22
2023-01-19T10:21:27.880Z,86.98
2023-01-19T10:25:13.077Z,88.15
2023-01-19T10:28:46.877Z,87.91
2023-01-19T10:32:13.590Z,87.82
2023-01-19T10:35:49.225Z,87.49
2023-01-19T10:42:42.748Z,88.06
2023-01-19T10:45:50.616Z,87.59
2023-01-19T10:49:14.584Z,87.39
2023-01-19T10:52:33.989Z,88.11
2023-01-19T10:56:20.493Z,87.53
2023-01-19T10:59:45.891Z,87.62
2023-01-19T11:03:09.213Z,87.25
2023-01-19T11:06:49.896Z,87.62
2023-01-19T11:10:24.286Z,87.23
2023-01-19T11:17:41.693Z,88.90
2023-01-19T11:21:06.931Z,87.81
2023-01-19T11:24:28.392Z,87.30
2023-01-19T11:29:06.820Z,88.51
2023-01-19T11:32:41.510Z,86.94
2023-01-19T11:37:01.044Z,87.30
2023-01-19T11:40:48.896Z,88.02
2023-01-19T11:45:03.749Z,87.27
2023-01-19T11:50:07.069Z,86.74
2023-01-19T11:53:37.220Z,86.62
2023-01-19T12:01:08.599Z,87.76
2023-01-19T12:04:41.487Z,87.69
2023-01-19T12:08:31.024Z,87.40
2023-01-19T12:16:15.606Z,87.81
2023-01-19T12:24:28.287Z,88.15
2023-01-19T12:27:51.450Z,87.82
2023-01-19T12:31:35.540Z,87.81
2023-01-19T12:35:05.341Z,87.92
2023-01-19T12:38:58.426Z,87.47
2023-01-19T12:42:38.072Z,87.48
2023-01-19T12:50:41.259Z,87.75
2023-01-19T12:58:20.577Z,87.57
2023-01-19T13:02:22.781Z,88.37
2023-01-19T13:05:33.629Z,87.56
2023-01-19T13:09:07.691Z,85.65
2023-01-19T13:12:22.373Z,86.95
2023-01-19T13:15:55.893Z,86.81
2023-01-19T13:19:24.898Z,85.89
2023-01-19T13:23:34.434Z,87.07
2023-01-19T13:27:02.457Z,86.97
2023-01-19T13:31:24.169Z,86.89
2023-01-19T13:34:47.463Z,85.87
2023-01-19T13:37:52.480Z,86.02
2023-01-19T13:41:00.707Z,87.08
2023-01-19T13:44:36.742Z,85.43
2023-01-19T13:47:53.327Z,86.56
2023-01-19T13:51:02.806Z,86.40
2023-01-19T13:54:17.289Z,87.23
2023-01-19T13:57:42.919Z,86.45
2023-01-19T14:00:47.819Z,85.84
2023-01-19T14:03:52.651Z,86.35
2023-01-19T14:07:15.261Z,85.62
2023-01-19T14:10:18.215Z,85.97
2023-01-19T14:13:35.436Z,85.49
2023-01-19T14:16:46.961Z,85.80
2023-01-19T14:19:58.698Z,86.44
2023-01-19T14:23:41.751Z,85.13
2023-01-19T14:26:54.324Z,85.36
2023-01-19T14:30:20.922Z,85.30
2023-01-19T14:33:55.693Z,85.40
2023-01-19T14:36:58.462Z,84.85
2023-01-19T14:40:13.927Z,84.69
2023-01-19T14:46:55.734Z,85.01
2023-01-19T14:50:07.969Z,83.93
2023-01-19T14:53:20.499Z,84.65
2023-01-19T14:56:28.653Z,84.44
2023-01-19T14:59:32.142Z,84.78
2023-01-19T15:02:34.910Z,84.51
2023-01-19T15:05:38.887Z,84.61
2023-01-19T15:08:42.691Z,84.81
2023-01-19T15:11:49.357Z,84.62
2023-01-19T15:14:51.340Z,84.42
2023-01-19T15:17:56.042Z,84.81
2023-01-19T15:21:03.123Z,85.42
2023-01-19T15:24:06.058Z,84.56
2023-01-19T15:27:11.975Z,84.94
2023-01-19T15:30:21.914Z,84.59
2023-01-19T15:33:27.297Z,85.55
2023-01-19T15:36:31.625Z,84.88
2023-01-19T15:39:33.845Z,84.52
2023-01-19T15:42:36.126Z,84.81
2023-01-19T15:45:50.889Z,84.71
2023-01-19T15:48:54.090Z,84.50
2023-01-19T15:51:57.463Z,85.26
2023-01-19T15:54:59.886Z,85.00
2023-01-19T15:58:01.756Z,85.04
2023-01-19T16:01:04.091Z,84.49
2023-01-19T16:04:08.118Z,85.48
2023-01-19T16:07:10.256Z,84.79
2023-01-19T16:10:12.920Z,84.52
2023-01-19T16:13:15.029Z,84.49
2023-01-19T16:16:20.074Z,84.04
2023-01-19T16:19:22.390Z,84.29
2023-01-19T16:22:33.149Z,84.02
2023-01-19T16:25:56.484Z,85.28
2023-01-19T16:29:08.974Z,85.35
2023-01-19T16:32:11.220Z,83.94
2023-01-19T16:35:18.490Z,84.78
2023-01-19T16:38:25.667Z,85.23
2023-01-19T16:41:29.207Z,85.19
2023-01-19T16:44:31.243Z,84.40
2023-01-19T16:47:34.947Z,84.25
2023-01-19T16:50:36.940Z,83.72
2023-01-19T16:53:39.289Z,83.93
2023-01-19T16:56:42.033Z,84.45
2023-01-19T16:59:45.231Z,84.58
2023-01-19T17:02:47.264Z,83.76
2023-01-19T17:05:52.170Z,83.70
2023-01-19T17:08:54.601Z,84.03
2023-01-19T17:11:58.405Z,83.41
2023-01-19T17:15:02.408Z,83.81
2023-01-19T17:18:05.198Z,84.26
2023-01-19T17:21:11.680Z,83.05
2023-01-19T17:24:14.040Z,83.34
2023-01-19T17:27:17.230Z,83.00
2023-01-19T17:30:20.430Z,83.23
2023-01-19T17:33:24.071Z,83.34
2023-01-19T17:36:27.763Z,82.91
2023-01-19T17:39:31.087Z,83.77
2023-01-19T17:42:33.038Z,83.67
2023-01-19T17:45:36.573Z,83.26
2023-01-19T17:48:39.278Z,83.42
2023-01-19T17:51:41.666Z,83.84
2023-01-19T17:54:47.237Z,82.92
2023-01-19T17:57:49.643Z,83.34
2023-01-19T18:00:51.915Z,83.38
2023-01-19T18:03:54.949Z,83.01
2023-01-19T18:06:57.235Z,82.35
2023-01-19T18:10:01.066Z,82.34
2023-01-19T18:13:03.412Z,83.24
2023-01-19T18:16:08.784Z,83.44
2023-01-19T18:19:11.480Z,82.86
2023-01-19T18:22:14.127Z,83.20
2023-01-19T18:25:17.552Z,83.63
2023-01-19T18:28:21.530Z,82.32
2023-01-19T18:31:25.079Z,82.67
2023-01-19T18:34:27.443Z,83.60
2023-01-19T18:37:30.113Z,82.95
2023-01-19T18:40:32.725Z,82.27
2023-01-19T18:43:35.039Z,82.83
2023-01-19T18:46:41.832Z,83.39
2023-01-19T18:49:44.615Z,82.62
2023-01-19T18:52:48.148Z,82.04
2023-01-19T18:55:58.706Z,83.54
2023-01-19T18:59:05.139Z,83.57
2023-01-19T19:02:09.503Z,83.05
2023-01-19T19:05:12.014Z,83.19
2023-01-19T19:08:15.593Z,82.90
2023-01-19T19:11:19.896Z,82.77
2023-01-19T19:14:22.340Z,82.67
2023-01-19T19:17:25.088Z,84.13
2023-01-19T19:20:28.506Z,83.19
2023-01-19T19:23:31.682Z,83.24
2023-01-19T19:26:34.920Z,84.02
2023-01-19T19:29:36.868Z,83.15
2023-01-19T19:32:39.528Z,83.80
2023-01-19T19:35:41.883Z,83.25
2023-01-19T19:38:47.752Z,83.67
2023-01-19T19:41:51.148Z,83.04
2023-01-19T19:44:54.997Z,83.32
2023-01-19T19:47:57.666Z,83.62
2023-01-19T19:51:18.606Z,83.64
2023-01-19T19:54:21.738Z,82.99
2023-01-19T19:57:26.239Z,83.25
2023-01-19T20:00:28.537Z,83.24
2023-01-19T20:03:31.190Z,83.24
2023-01-19T20:06:38.631Z,82.74
2023-01-19T20:09:40.845Z,82.21
2023-01-19T20:12:43.860Z,83.34
2023-01-19T20:15:46.018Z,83.32
2023-01-19T20:18:54.317Z,83.36
2023-01-19T20:21:58.148Z,82.56
2023-01-19T20:25:00.699Z,82.92
2023-01-19T20:28:02.895Z,82.86
2023-01-19T20:31:14.860Z,83.70
2023-01-19T20:34:19.428Z,83.33
2023-01-19T20:37:21.778Z,83.81
2023-01-19T20:40:24.033Z,82.50
2023-01-19T20:43:26.302Z,83.41
2023-01-19T20:46:28.552Z,82.62
2023-01-19T20:49:31.409Z,82.75
2023-01-19T20:52:36.031Z,83.28
2023-01-19T20:55:39.211Z,83.73
2023-01-19T20:58:42.180Z,83.73
2023-01-19T21:01:45.099Z,83.68
2023-01-19T21:04:47.890Z,83.49
2023-01-19T21:07:50.991Z,83.16
2023-01-19T21:10:57.068Z,83.39
2023-01-19T21:13:59.360Z,83.15
2023-01-19T21:17:01.572Z,83.02
2023-01-19T21:20:05.313Z,83.51
2023-01-19T21:23:07.521Z,83.34
2023-01-19T21:26:09.677Z,83.32
2023-01-19T21:29:14.652Z,83.65
2023-01-19T21:32:16.805Z,82.64
2023-01-19T21:35:18.632Z,82.90
2023-01-19T21:38:21.696Z,83.53
2023-01-19T21:41:23.959Z,82.85
2023-01-19T21:44:26.048Z,82.72
2023-01-19T21:47:28.065Z,82.73
2023-01-19T21:50:30.050Z,82.50
2023-01-19T21:53:31.933Z,81.00
2023-01-19T21:56:35.162Z,81.82
2023-01-19T21:59:37.500Z,81.38
2023-01-19T22:02:39.586Z,81.20
2023-01-19T22:05:42.411Z,81.86
2023-01-19T22:08:46.732Z,81.06
2023-01-19T22:11:48.883Z,80.88
2023-01-19T22:14:51.301Z,81.43
2023-01-19T22:17:53.619Z,82.15
2023-01-19T22:20:55.767Z,80.28
2023-01-19T22:23:59.999Z,80.57
2023-01-19T22:27:02.007Z,79.95
2023-01-19T22:30:04.276Z,80.90
2023-01-19T22:33:06.884Z,81.24
2023-01-19T22:36:17.472Z,82.04
2023-01-19T22:39:22.134Z,80.91
2023-01-19T22:42:24.145Z,80.88
2023-01-19T22:45:26.169Z,81.29
2023-01-19T22:48:28.182Z,82.15
2023-01-19T22:51:32.073Z,81.83
2023-01-19T22:54:34.027Z,82.13
2023-01-19T22:57:36.710Z,81.76
2023-01-19T23:00:38.957Z,82.63
2023-01-19T23:03:41.932Z,81.37
2023-01-19T23:06:47.028Z,81.98
2023-01-19T23:09:49.042Z,82.50
2023-01-19T23:12:51.067Z,82.88
2023-01-19T23:15:53.037Z,82.50
2023-01-19T23:18:57.223Z,83.23
2023-01-19T23:21:59.781Z,82.59
2023-01-19T23:25:01.736Z,81.92
2023-01-19T23:28:03.792Z,82.29
2023-01-19T23:31:22.910Z,81.33
2023-01-19T23:34:24.894Z,81.88
2023-01-19T23:37:28.262Z,82.78
2023-01-19T23:40:30.552Z,82.31
2023-01-19T23:43:33.911Z,81.92
2023-01-19T23:46:36.069Z,82.68
2023-01-19T23:49:40.259Z,82.56
2023-01-19T23:52:42.939Z,81.83
2023-01-19T23:55:44.888Z,82.13
2023-01-19T23:58:51.844Z,82.20
